sensor_id;sensor_type;location;lat;lon;timestamp;temperature;humidity
58993;DHT22;44782;0.000;0.000;2022-10-26T00:00:40;19.70;70.10
58993;DHT22;44782;0.000;0.000;2022-10-26T00:02:55;19.70;70.00
58993;DHT22;44782;0.000;0.000;2022-10-26T00:05:11;19.70;70.00
58993;DHT22;44782;0.000;0.000;2022-10-26T00:07:28;19.70;69.90
58993;DHT22;44782;0.000;0.000;2022-10-26T00:09:44;19.70;69.90
58993;DHT22;44782;0.000;0.000;2022-10-26T00:11:59;19.70;69.80
58993;DHT22;44782;0.000;0.000;2022-10-26T00:14:15;19.70;69.80
58993;DHT22;44782;0.000;0.000;2022-10-26T00:16:30;19.70;69.80
58993;DHT22;44782;0.000;0.000;2022-10-26T00:18:46;19.70;69.80
58993;DHT22;44782;0.000;0.000;2022-10-26T00:21:06;19.60;69.70
58993;DHT22;44782;0.000;0.000;2022-10-26T00:23:22;19.60;69.60
58993;DHT22;44782;0.000;0.000;2022-10-26T00:25:38;19.60;69.70
58993;DHT22;44782;0.000;0.000;2022-10-26T00:27:53;19.60;69.60
58993;DHT22;44782;0.000;0.000;2022-10-26T00:30:09;19.60;69.60
58993;DHT22;44782;0.000;0.000;2022-10-26T00:32:25;19.60;69.60
58993;DHT22;44782;0.000;0.000;2022-10-26T00:34:40;19.60;69.60
58993;DHT22;44782;0.000;0.000;2022-10-26T00:36:56;19.60;69.60
58993;DHT22;44782;0.000;0.000;2022-10-26T00:39:12;19.60;69.60
58993;DHT22;44782;0.000;0.000;2022-10-26T00:41:30;19.60;69.60
58993;DHT22;44782;0.000;0.000;2022-10-26T00:43:46;19.60;69.60
58993;DHT22;44782;0.000;0.000;2022-10-26T00:46:04;19.60;69.50
58993;DHT22;44782;0.000;0.000;2022-10-26T00:48:56;19.60;69.50
58993;DHT22;44782;0.000;0.000;2022-10-26T00:51:32;19.60;69.30
58993;DHT22;44782;0.000;0.000;2022-10-26T00:53:49;19.50;69.40
58993;DHT22;44782;0.000;0.000;2022-10-26T00:56:05;19.50;69.50
58993;DHT22;44782;0.000;0.000;2022-10-26T00:58:22;19.50;69.40
58993;DHT22;44782;0.000;0.000;2022-10-26T01:00:40;19.50;69.40
58993;DHT22;44782;0.000;0.000;2022-10-26T01:02:58;19.50;69.40
58993;DHT22;44782;0.000;0.000;2022-10-26T01:05:16;19.50;69.40
58993;DHT22;44782;0.000;0.000;2022-10-26T01:07:32;19.50;69.40
58993;DHT22;44782;0.000;0.000;2022-10-26T01:09:48;19.50;69.40
58993;DHT22;44782;0.000;0.000;2022-10-26T01:12:04;19.50;69.40
58993;DHT22;44782;0.000;0.000;2022-10-26T01:14:22;19.50;69.40
58993;DHT22;44782;0.000;0.000;2022-10-26T01:31:30;19.50;69.30
58993;DHT22;44782;0.000;0.000;2022-10-26T01:33:52;19.50;69.30
58993;DHT22;44782;0.000;0.000;2022-10-26T01:36:33;19.40;69.20
58993;DHT22;44782;0.000;0.000;2022-10-26T01:39:03;19.50;69.10
58993;DHT22;44782;0.000;0.000;2022-10-26T01:41:28;19.50;69.20
58993;DHT22;44782;0.000;0.000;2022-10-26T01:43:54;19.40;69.10
58993;DHT22;44782;0.000;0.000;2022-10-26T01:46:10;19.50;69.20
58993;DHT22;44782;0.000;0.000;2022-10-26T01:48:27;19.40;69.30
58993;DHT22;44782;0.000;0.000;2022-10-26T01:50:46;19.40;69.30
58993;DHT22;44782;0.000;0.000;2022-10-26T01:53:02;19.40;69.20
58993;DHT22;44782;0.000;0.000;2022-10-26T01:55:48;19.40;69.20
58993;DHT22;44782;0.000;0.000;2022-10-26T02:03:51;19.40;69.20
58993;DHT22;44782;0.000;0.000;2022-10-26T02:06:21;19.40;69.10
58993;DHT22;44782;0.000;0.000;2022-10-26T02:09:12;19.40;69.10
58993;DHT22;44782;0.000;0.000;2022-10-26T02:11:40;19.40;69.10
58993;DHT22;44782;0.000;0.000;2022-10-26T02:19:06;19.40;69.30
58993;DHT22;44782;0.000;0.000;2022-10-26T02:21:29;19.40;69.00
58993;DHT22;44782;0.000;0.000;2022-10-26T02:23:47;19.30;69.20
58993;DHT22;44782;0.000;0.000;2022-10-26T02:26:04;19.30;69.30
58993;DHT22;44782;0.000;0.000;2022-10-26T02:28:28;19.30;69.30
58993;DHT22;44782;0.000;0.000;2022-10-26T02:30:48;19.30;69.10
58993;DHT22;44782;0.000;0.000;2022-10-26T02:33:06;19.30;69.20
58993;DHT22;44782;0.000;0.000;2022-10-26T02:35:26;19.30;69.20
58993;DHT22;44782;0.000;0.000;2022-10-26T02:37:45;19.30;69.20
58993;DHT22;44782;0.000;0.000;2022-10-26T02:40:05;19.30;69.20
58993;DHT22;44782;0.000;0.000;2022-10-26T02:42:23;19.30;69.20
58993;DHT22;44782;0.000;0.000;2022-10-26T02:44:43;19.30;69.30
58993;DHT22;44782;0.000;0.000;2022-10-26T02:47:01;19.30;69.20
58993;DHT22;44782;0.000;0.000;2022-10-26T02:49:17;19.30;69.20
58993;DHT22;44782;0.000;0.000;2022-10-26T02:54:13;19.30;69.10
58993;DHT22;44782;0.000;0.000;2022-10-26T02:56:43;19.30;69.10
58993;DHT22;44782;0.000;0.000;2022-10-26T02:59:03;19.30;69.00
58993;DHT22;44782;0.000;0.000;2022-10-26T03:01:19;19.30;69.30
58993;DHT22;44782;0.000;0.000;2022-10-26T03:03:35;19.30;69.30
58993;DHT22;44782;0.000;0.000;2022-10-26T03:05:51;19.30;69.30
58993;DHT22;44782;0.000;0.000;2022-10-26T03:08:07;19.30;69.30
58993;DHT22;44782;0.000;0.000;2022-10-26T03:10:23;19.30;69.30
58993;DHT22;44782;0.000;0.000;2022-10-26T03:12:39;19.30;69.30
58993;DHT22;44782;0.000;0.000;2022-10-26T03:14:54;19.30;69.30
58993;DHT22;44782;0.000;0.000;2022-10-26T03:17:10;19.30;69.30
58993;DHT22;44782;0.000;0.000;2022-10-26T03:19:26;19.20;69.30
58993;DHT22;44782;0.000;0.000;2022-10-26T03:21:41;19.30;69.30
58993;DHT22;44782;0.000;0.000;2022-10-26T03:23:57;19.20;69.30
58993;DHT22;44782;0.000;0.000;2022-10-26T03:26:13;19.20;69.30
58993;DHT22;44782;0.000;0.000;2022-10-26T03:28:28;19.30;69.30
58993;DHT22;44782;0.000;0.000;2022-10-26T03:30:44;19.20;69.30
58993;DHT22;44782;0.000;0.000;2022-10-26T03:32:59;19.30;69.30
58993;DHT22;44782;0.000;0.000;2022-10-26T03:35:15;19.20;69.30
58993;DHT22;44782;0.000;0.000;2022-10-26T03:37:31;19.20;69.20
58993;DHT22;44782;0.000;0.000;2022-10-26T03:39:46;19.20;69.30
58993;DHT22;44782;0.000;0.000;2022-10-26T03:42:02;19.20;69.40
58993;DHT22;44782;0.000;0.000;2022-10-26T03:44:17;19.20;69.30
58993;DHT22;44782;0.000;0.000;2022-10-26T03:46:33;19.20;69.20
58993;DHT22;44782;0.000;0.000;2022-10-26T03:48:49;19.20;69.30
58993;DHT22;44782;0.000;0.000;2022-10-26T03:51:04;19.20;69.30
58993;DHT22;44782;0.000;0.000;2022-10-26T03:53:20;19.20;69.30
58993;DHT22;44782;0.000;0.000;2022-10-26T03:55:36;19.20;69.30
58993;DHT22;44782;0.000;0.000;2022-10-26T03:57:51;19.20;69.30
58993;DHT22;44782;0.000;0.000;2022-10-26T04:00:09;19.20;69.30
58993;DHT22;44782;0.000;0.000;2022-10-26T04:02:24;19.20;69.30
58993;DHT22;44782;0.000;0.000;2022-10-26T04:04:40;19.20;69.30
58993;DHT22;44782;0.000;0.000;2022-10-26T04:06:56;19.20;69.30
58993;DHT22;44782;0.000;0.000;2022-10-26T04:09:11;19.20;69.30
58993;DHT22;44782;0.000;0.000;2022-10-26T04:11:30;19.20;69.30
58993;DHT22;44782;0.000;0.000;2022-10-26T04:13:46;19.20;69.30
58993;DHT22;44782;0.000;0.000;2022-10-26T04:16:02;19.20;69.30
58993;DHT22;44782;0.000;0.000;2022-10-26T04:18:18;19.20;69.30
58993;DHT22;44782;0.000;0.000;2022-10-26T04:20:33;19.20;69.30
58993;DHT22;44782;0.000;0.000;2022-10-26T04:23:02;19.20;69.30
58993;DHT22;44782;0.000;0.000;2022-10-26T04:25:17;19.20;69.10
58993;DHT22;44782;0.000;0.000;2022-10-26T04:27:33;19.20;69.30
58993;DHT22;44782;0.000;0.000;2022-10-26T04:29:49;19.20;69.30
58993;DHT22;44782;0.000;0.000;2022-10-26T04:32:05;19.10;69.30
58993;DHT22;44782;0.000;0.000;2022-10-26T04:34:21;19.20;69.30
58993;DHT22;44782;0.000;0.000;2022-10-26T04:36:37;19.20;69.30
58993;DHT22;44782;0.000;0.000;2022-10-26T04:38:53;19.20;69.30
58993;DHT22;44782;0.000;0.000;2022-10-26T04:41:08;19.10;69.10
58993;DHT22;44782;0.000;0.000;2022-10-26T04:43:24;19.10;69.20
58993;DHT22;44782;0.000;0.000;2022-10-26T04:45:39;19.20;69.20
58993;DHT22;44782;0.000;0.000;2022-10-26T04:48:03;19.10;69.90
58993;DHT22;44782;0.000;0.000;2022-10-26T04:50:19;19.20;69.10
58993;DHT22;44782;0.000;0.000;2022-10-26T04:52:35;19.10;69.20
58993;DHT22;44782;0.000;0.000;2022-10-26T04:54:51;19.10;69.10
58993;DHT22;44782;0.000;0.000;2022-10-26T04:57:06;19.10;69.20
58993;DHT22;44782;0.000;0.000;2022-10-26T04:59:22;19.10;69.20
58993;DHT22;44782;0.000;0.000;2022-10-26T05:01:38;19.10;69.20
58993;DHT22;44782;0.000;0.000;2022-10-26T05:03:53;19.10;69.10
58993;DHT22;44782;0.000;0.000;2022-10-26T05:06:09;19.10;69.10
58993;DHT22;44782;0.000;0.000;2022-10-26T05:08:27;19.10;69.10
58993;DHT22;44782;0.000;0.000;2022-10-26T05:10:48;19.10;69.10
58993;DHT22;44782;0.000;0.000;2022-10-26T05:13:04;19.10;69.00
58993;DHT22;44782;0.000;0.000;2022-10-26T05:15:20;19.10;69.10
58993;DHT22;44782;0.000;0.000;2022-10-26T05:17:35;19.10;69.10
58993;DHT22;44782;0.000;0.000;2022-10-26T05:19:51;19.10;69.10
58993;DHT22;44782;0.000;0.000;2022-10-26T05:22:09;19.10;69.10
58993;DHT22;44782;0.000;0.000;2022-10-26T05:24:25;19.10;69.10
58993;DHT22;44782;0.000;0.000;2022-10-26T05:26:41;19.10;69.10
58993;DHT22;44782;0.000;0.000;2022-10-26T05:28:56;19.10;69.10
58993;DHT22;44782;0.000;0.000;2022-10-26T05:31:12;19.10;69.10
58993;DHT22;44782;0.000;0.000;2022-10-26T05:33:28;19.10;69.10
58993;DHT22;44782;0.000;0.000;2022-10-26T05:35:43;19.10;69.10
58993;DHT22;44782;0.000;0.000;2022-10-26T05:37:59;19.10;69.30
58993;DHT22;44782;0.000;0.000;2022-10-26T05:40:21;19.10;69.60
58993;DHT22;44782;0.000;0.000;2022-10-26T05:42:36;19.10;69.60
58993;DHT22;44782;0.000;0.000;2022-10-26T05:44:52;19.10;69.70
58993;DHT22;44782;0.000;0.000;2022-10-26T05:47:08;19.10;69.80
58993;DHT22;44782;0.000;0.000;2022-10-26T05:49:23;19.10;69.90
58993;DHT22;44782;0.000;0.000;2022-10-26T05:51:39;19.10;70.00
58993;DHT22;44782;0.000;0.000;2022-10-26T05:53:55;19.10;70.10
58993;DHT22;44782;0.000;0.000;2022-10-26T05:56:19;19.00;70.00
58993;DHT22;44782;0.000;0.000;2022-10-26T05:58:35;19.10;70.40
58993;DHT22;44782;0.000;0.000;2022-10-26T06:03:59;19.10;70.50
58993;DHT22;44782;0.000;0.000;2022-10-26T06:06:17;19.10;70.30
58993;DHT22;44782;0.000;0.000;2022-10-26T06:08:32;19.00;70.40
58993;DHT22;44782;0.000;0.000;2022-10-26T06:10:48;19.10;70.40
58993;DHT22;44782;0.000;0.000;2022-10-26T06:13:04;19.10;70.40
58993;DHT22;44782;0.000;0.000;2022-10-26T06:15:21;19.10;70.50
58993;DHT22;44782;0.000;0.000;2022-10-26T06:17:49;19.10;70.50
58993;DHT22;44782;0.000;0.000;2022-10-26T06:22:52;19.10;71.30
58993;DHT22;44782;0.000;0.000;2022-10-26T06:28:35;19.10;71.20
58993;DHT22;44782;0.000;0.000;2022-10-26T06:30:31;19.10;71.70
58993;DHT22;44782;0.000;0.000;2022-10-26T06:32:47;19.00;71.00
58993;DHT22;44782;0.000;0.000;2022-10-26T06:37:48;19.10;71.70
58993;DHT22;44782;0.000;0.000;2022-10-26T06:40:05;19.10;71.70
58993;DHT22;44782;0.000;0.000;2022-10-26T06:42:21;19.00;71.50
58993;DHT22;44782;0.000;0.000;2022-10-26T06:44:37;19.00;71.40
58993;DHT22;44782;0.000;0.000;2022-10-26T06:52:15;19.10;71.60
58993;DHT22;44782;0.000;0.000;2022-10-26T06:54:51;19.00;71.90
58993;DHT22;44782;0.000;0.000;2022-10-26T06:57:12;19.10;71.90
58993;DHT22;44782;0.000;0.000;2022-10-26T07:02:08;19.10;71.50
58993;DHT22;44782;0.000;0.000;2022-10-26T07:04:25;19.00;71.40
58993;DHT22;44782;0.000;0.000;2022-10-26T07:06:41;19.00;71.30
58993;DHT22;44782;0.000;0.000;2022-10-26T07:08:56;19.00;71.20
58993;DHT22;44782;0.000;0.000;2022-10-26T07:11:12;19.00;71.20
58993;DHT22;44782;0.000;0.000;2022-10-26T07:13:28;19.00;71.20
58993;DHT22;44782;0.000;0.000;2022-10-26T07:15:43;19.00;71.20
58993;DHT22;44782;0.000;0.000;2022-10-26T07:17:59;19.00;71.20
58993;DHT22;44782;0.000;0.000;2022-10-26T07:20:16;19.00;71.00
58993;DHT22;44782;0.000;0.000;2022-10-26T07:22:32;19.00;70.90
58993;DHT22;44782;0.000;0.000;2022-10-26T07:24:48;19.00;70.90
58993;DHT22;44782;0.000;0.000;2022-10-26T07:27:05;19.00;71.00
58993;DHT22;44782;0.000;0.000;2022-10-26T07:29:22;19.00;70.90
58993;DHT22;44782;0.000;0.000;2022-10-26T07:31:38;19.00;70.90
58993;DHT22;44782;0.000;0.000;2022-10-26T07:33:53;19.00;70.80
58993;DHT22;44782;0.000;0.000;2022-10-26T07:36:09;19.00;70.80
58993;DHT22;44782;0.000;0.000;2022-10-26T07:38:25;19.00;70.80
58993;DHT22;44782;0.000;0.000;2022-10-26T07:40:40;19.00;70.80
58993;DHT22;44782;0.000;0.000;2022-10-26T07:42:57;19.00;70.70
58993;DHT22;44782;0.000;0.000;2022-10-26T07:45:13;19.00;70.60
58993;DHT22;44782;0.000;0.000;2022-10-26T07:47:29;19.00;70.60
58993;DHT22;44782;0.000;0.000;2022-10-26T07:49:44;19.00;70.60
58993;DHT22;44782;0.000;0.000;2022-10-26T07:52:00;19.00;70.70
58993;DHT22;44782;0.000;0.000;2022-10-26T07:54:15;19.00;70.60
58993;DHT22;44782;0.000;0.000;2022-10-26T07:56:31;19.00;70.60
58993;DHT22;44782;0.000;0.000;2022-10-26T07:58:47;19.00;70.50
58993;DHT22;44782;0.000;0.000;2022-10-26T08:01:10;19.00;70.50
58993;DHT22;44782;0.000;0.000;2022-10-26T08:03:25;19.00;70.50
58993;DHT22;44782;0.000;0.000;2022-10-26T08:05:41;19.00;70.50
58993;DHT22;44782;0.000;0.000;2022-10-26T08:07:57;19.00;70.60
58993;DHT22;44782;0.000;0.000;2022-10-26T08:10:13;19.00;70.60
58993;DHT22;44782;0.000;0.000;2022-10-26T08:12:29;19.00;70.50
58993;DHT22;44782;0.000;0.000;2022-10-26T08:14:44;19.00;70.50
58993;DHT22;44782;0.000;0.000;2022-10-26T08:17:00;19.00;70.50
58993;DHT22;44782;0.000;0.000;2022-10-26T08:19:16;19.00;70.50
58993;DHT22;44782;0.000;0.000;2022-10-26T08:21:31;19.00;70.50
58993;DHT22;44782;0.000;0.000;2022-10-26T08:23:47;19.00;70.60
58993;DHT22;44782;0.000;0.000;2022-10-26T08:26:03;19.00;70.60
58993;DHT22;44782;0.000;0.000;2022-10-26T08:28:18;19.00;70.60
58993;DHT22;44782;0.000;0.000;2022-10-26T08:30:34;19.00;70.60
58993;DHT22;44782;0.000;0.000;2022-10-26T08:33:00;19.00;70.60
58993;DHT22;44782;0.000;0.000;2022-10-26T08:35:16;19.00;70.60
58993;DHT22;44782;0.000;0.000;2022-10-26T08:37:31;19.00;70.50
58993;DHT22;44782;0.000;0.000;2022-10-26T08:39:47;19.00;70.60
58993;DHT22;44782;0.000;0.000;2022-10-26T08:44:50;19.00;70.40
58993;DHT22;44782;0.000;0.000;2022-10-26T08:49:46;19.00;70.60
58993;DHT22;44782;0.000;0.000;2022-10-26T08:52:04;19.10;70.50
58993;DHT22;44782;0.000;0.000;2022-10-26T08:56:41;19.10;70.80
58993;DHT22;44782;0.000;0.000;2022-10-26T09:01:26;19.10;70.90
58993;DHT22;44782;0.000;0.000;2022-10-26T09:03:45;19.10;70.90
58993;DHT22;44782;0.000;0.000;2022-10-26T09:08:52;19.10;70.80
58993;DHT22;44782;0.000;0.000;2022-10-26T09:14:12;19.20;70.80
58993;DHT22;44782;0.000;0.000;2022-10-26T09:16:40;19.20;70.80
58993;DHT22;44782;0.000;0.000;2022-10-26T09:22:00;19.20;70.50
58993;DHT22;44782;0.000;0.000;2022-10-26T09:24:40;19.30;70.50
58993;DHT22;44782;0.000;0.000;2022-10-26T09:27:42;19.30;70.50
58993;DHT22;44782;0.000;0.000;2022-10-26T09:29:42;19.30;70.60
58993;DHT22;44782;0.000;0.000;2022-10-26T09:31:59;19.30;70.50
58993;DHT22;44782;0.000;0.000;2022-10-26T09:36:37;19.30;70.40
58993;DHT22;44782;0.000;0.000;2022-10-26T09:41:39;19.30;70.10
58993;DHT22;44782;0.000;0.000;2022-10-26T09:44:13;19.30;70.20
58993;DHT22;44782;0.000;0.000;2022-10-26T09:46:52;19.40;70.00
58993;DHT22;44782;0.000;0.000;2022-10-26T09:49:11;19.40;70.10
58993;DHT22;44782;0.000;0.000;2022-10-26T09:51:28;19.40;70.20
58993;DHT22;44782;0.000;0.000;2022-10-26T09:53:44;19.40;70.10
58993;DHT22;44782;0.000;0.000;2022-10-26T09:56:08;19.40;70.10
58993;DHT22;44782;0.000;0.000;2022-10-26T09:58:30;19.40;69.90
58993;DHT22;44782;0.000;0.000;2022-10-26T10:00:47;19.40;69.90
58993;DHT22;44782;0.000;0.000;2022-10-26T10:03:16;19.40;69.90
58993;DHT22;44782;0.000;0.000;2022-10-26T10:05:33;19.40;69.60
58993;DHT22;44782;0.000;0.000;2022-10-26T10:07:49;19.40;69.80
58993;DHT22;44782;0.000;0.000;2022-10-26T10:10:20;19.40;69.80
58993;DHT22;44782;0.000;0.000;2022-10-26T10:12:36;19.50;69.70
58993;DHT22;44782;0.000;0.000;2022-10-26T10:14:58;19.50;69.80
58993;DHT22;44782;0.000;0.000;2022-10-26T10:17:20;19.50;69.70
58993;DHT22;44782;0.000;0.000;2022-10-26T10:19:37;19.50;69.60
58993;DHT22;44782;0.000;0.000;2022-10-26T10:21:58;19.50;69.70
58993;DHT22;44782;0.000;0.000;2022-10-26T10:24:37;19.50;69.60
58993;DHT22;44782;0.000;0.000;2022-10-26T10:27:00;19.50;69.30
58993;DHT22;44782;0.000;0.000;2022-10-26T10:29:16;19.50;69.60
58993;DHT22;44782;0.000;0.000;2022-10-26T10:31:32;19.50;69.60
58993;DHT22;44782;0.000;0.000;2022-10-26T10:33:48;19.50;69.50
58993;DHT22;44782;0.000;0.000;2022-10-26T10:36:07;19.50;69.50
58993;DHT22;44782;0.000;0.000;2022-10-26T10:38:23;19.50;69.40
58993;DHT22;44782;0.000;0.000;2022-10-26T10:40:39;19.60;69.50
58993;DHT22;44782;0.000;0.000;2022-10-26T10:43:04;19.50;69.40
58993;DHT22;44782;0.000;0.000;2022-10-26T10:45:27;19.60;69.20
58993;DHT22;44782;0.000;0.000;2022-10-26T10:47:58;19.60;69.40
58993;DHT22;44782;0.000;0.000;2022-10-26T10:50:18;19.60;69.10
58993;DHT22;44782;0.000;0.000;2022-10-26T10:52:35;19.60;69.30
58993;DHT22;44782;0.000;0.000;2022-10-26T10:55:07;19.60;69.30
58993;DHT22;44782;0.000;0.000;2022-10-26T10:57:28;19.60;69.30
58993;DHT22;44782;0.000;0.000;2022-10-26T11:09:38;19.60;69.60
58993;DHT22;44782;0.000;0.000;2022-10-26T11:11:57;19.60;69.70
58993;DHT22;44782;0.000;0.000;2022-10-26T11:14:37;19.60;69.80
58993;DHT22;44782;0.000;0.000;2022-10-26T11:19:28;19.60;70.10
58993;DHT22;44782;0.000;0.000;2022-10-26T11:21:48;19.60;70.20
58993;DHT22;44782;0.000;0.000;2022-10-26T11:24:21;19.60;70.30
58993;DHT22;44782;0.000;0.000;2022-10-26T11:29:34;19.60;70.30
58993;DHT22;44782;0.000;0.000;2022-10-26T11:31:58;19.70;70.60
58993;DHT22;44782;0.000;0.000;2022-10-26T11:34:28;19.60;70.70
58993;DHT22;44782;0.000;0.000;2022-10-26T11:36:49;19.60;70.70
58993;DHT22;44782;0.000;0.000;2022-10-26T11:39:24;19.60;70.90
58993;DHT22;44782;0.000;0.000;2022-10-26T11:41:53;19.60;70.90
58993;DHT22;44782;0.000;0.000;2022-10-26T11:44:18;19.60;70.80
58993;DHT22;44782;0.000;0.000;2022-10-26T11:46:40;19.70;71.00
58993;DHT22;44782;0.000;0.000;2022-10-26T11:49:04;19.70;71.10
58993;DHT22;44782;0.000;0.000;2022-10-26T11:54:02;19.70;71.20
58993;DHT22;44782;0.000;0.000;2022-10-26T11:56:29;19.60;71.10
58993;DHT22;44782;0.000;0.000;2022-10-26T11:58:45;19.70;71.20
58993;DHT22;44782;0.000;0.000;2022-10-26T12:01:07;19.70;71.20
58993;DHT22;44782;0.000;0.000;2022-10-26T12:03:31;19.70;71.10
58993;DHT22;44782;0.000;0.000;2022-10-26T12:05:51;19.70;71.20
58993;DHT22;44782;0.000;0.000;2022-10-26T12:10:30;19.70;71.20
58993;DHT22;44782;0.000;0.000;2022-10-26T12:13:23;19.70;71.20
58993;DHT22;44782;0.000;0.000;2022-10-26T12:18:22;19.70;71.20
58993;DHT22;44782;0.000;0.000;2022-10-26T12:20:55;19.70;71.20
58993;DHT22;44782;0.000;0.000;2022-10-26T12:23:17;19.70;71.20
58993;DHT22;44782;0.000;0.000;2022-10-26T12:25:32;19.60;71.10
58993;DHT22;44782;0.000;0.000;2022-10-26T12:27:51;19.70;71.10
58993;DHT22;44782;0.000;0.000;2022-10-26T12:30:33;19.70;71.10
58993;DHT22;44782;0.000;0.000;2022-10-26T12:32:57;19.70;71.10
58993;DHT22;44782;0.000;0.000;2022-10-26T12:35:33;19.70;71.10
58993;DHT22;44782;0.000;0.000;2022-10-26T12:37:49;19.70;71.00
58993;DHT22;44782;0.000;0.000;2022-10-26T12:42:45;19.70;71.00
58993;DHT22;44782;0.000;0.000;2022-10-26T12:45:12;19.70;71.10
58993;DHT22;44782;0.000;0.000;2022-10-26T12:50:23;19.70;71.00
58993;DHT22;44782;0.000;0.000;2022-10-26T12:52:40;19.70;71.00
58993;DHT22;44782;0.000;0.000;2022-10-26T13:00:13;19.70;70.90
58993;DHT22;44782;0.000;0.000;2022-10-26T13:08:45;19.70;70.70
58993;DHT22;44782;0.000;0.000;2022-10-26T13:11:27;19.70;70.80
58993;DHT22;44782;0.000;0.000;2022-10-26T13:13:54;19.70;70.70
58993;DHT22;44782;0.000;0.000;2022-10-26T13:16:11;19.70;70.80
58993;DHT22;44782;0.000;0.000;2022-10-26T13:18:28;19.60;70.70
58993;DHT22;44782;0.000;0.000;2022-10-26T13:23:27;19.70;70.50
58993;DHT22;44782;0.000;0.000;2022-10-26T13:26:00;19.70;70.60
58993;DHT22;44782;0.000;0.000;2022-10-26T13:30:53;19.70;70.50
58993;DHT22;44782;0.000;0.000;2022-10-26T13:33:18;19.70;70.60
58993;DHT22;44782;0.000;0.000;2022-10-26T13:35:39;19.70;70.40
58993;DHT22;44782;0.000;0.000;2022-10-26T13:37:56;19.70;70.50
58993;DHT22;44782;0.000;0.000;2022-10-26T13:40:16;19.60;70.40
58993;DHT22;44782;0.000;0.000;2022-10-26T13:42:43;19.70;70.40
58993;DHT22;44782;0.000;0.000;2022-10-26T13:45:06;19.70;70.30
58993;DHT22;44782;0.000;0.000;2022-10-26T13:50:26;19.70;70.20
58993;DHT22;44782;0.000;0.000;2022-10-26T13:52:45;19.70;70.40
58993;DHT22;44782;0.000;0.000;2022-10-26T13:55:07;19.70;70.40
58993;DHT22;44782;0.000;0.000;2022-10-26T13:57:31;19.70;70.40
58993;DHT22;44782;0.000;0.000;2022-10-26T13:59:48;19.70;70.30
58993;DHT22;44782;0.000;0.000;2022-10-26T14:02:26;19.60;70.30
58993;DHT22;44782;0.000;0.000;2022-10-26T14:04:50;19.70;70.20
58993;DHT22;44782;0.000;0.000;2022-10-26T14:07:19;19.70;70.30
58993;DHT22;44782;0.000;0.000;2022-10-26T14:09:37;19.70;70.20
58993;DHT22;44782;0.000;0.000;2022-10-26T14:11:55;19.70;70.30
58993;DHT22;44782;0.000;0.000;2022-10-26T14:16:36;19.70;70.20
58993;DHT22;44782;0.000;0.000;2022-10-26T14:19:00;19.70;70.30
58993;DHT22;44782;0.000;0.000;2022-10-26T14:21:19;19.70;70.30
58993;DHT22;44782;0.000;0.000;2022-10-26T14:23:44;19.70;70.20
58993;DHT22;44782;0.000;0.000;2022-10-26T14:26:00;19.70;70.20
58993;DHT22;44782;0.000;0.000;2022-10-26T14:28:20;19.70;70.20
58993;DHT22;44782;0.000;0.000;2022-10-26T14:30:36;19.70;70.20
58993;DHT22;44782;0.000;0.000;2022-10-26T14:32:52;19.70;70.20
58993;DHT22;44782;0.000;0.000;2022-10-26T14:35:12;19.70;70.20
58993;DHT22;44782;0.000;0.000;2022-10-26T14:39:55;19.70;70.00
58993;DHT22;44782;0.000;0.000;2022-10-26T14:44:35;19.70;70.00
58993;DHT22;44782;0.000;0.000;2022-10-26T14:46:51;19.70;70.10
58993;DHT22;44782;0.000;0.000;2022-10-26T14:49:18;19.70;70.20
58993;DHT22;44782;0.000;0.000;2022-10-26T14:51:34;19.70;70.00
58993;DHT22;44782;0.000;0.000;2022-10-26T14:53:52;19.70;70.10
58993;DHT22;44782;0.000;0.000;2022-10-26T14:58:43;19.70;69.80
58993;DHT22;44782;0.000;0.000;2022-10-26T15:01:31;19.60;70.10
58993;DHT22;44782;0.000;0.000;2022-10-26T15:03:56;19.70;69.90
58993;DHT22;44782;0.000;0.000;2022-10-26T15:06:38;19.70;70.00
58993;DHT22;44782;0.000;0.000;2022-10-26T15:08:55;19.70;70.00
58993;DHT22;44782;0.000;0.000;2022-10-26T15:11:12;19.60;70.20
58993;DHT22;44782;0.000;0.000;2022-10-26T15:13:31;19.60;70.30
58993;DHT22;44782;0.000;0.000;2022-10-26T15:15:47;19.70;70.30
58993;DHT22;44782;0.000;0.000;2022-10-26T15:18:04;19.70;70.50
58993;DHT22;44782;0.000;0.000;2022-10-26T15:20:29;19.70;70.50
58993;DHT22;44782;0.000;0.000;2022-10-26T15:23:02;19.70;70.40
58993;DHT22;44782;0.000;0.000;2022-10-26T15:25:27;19.70;70.30
58993;DHT22;44782;0.000;0.000;2022-10-26T15:27:43;19.70;70.40
58993;DHT22;44782;0.000;0.000;2022-10-26T15:30:25;19.70;70.40
58993;DHT22;44782;0.000;0.000;2022-10-26T15:32:41;19.70;70.40
58993;DHT22;44782;0.000;0.000;2022-10-26T15:37:33;19.70;70.40
58993;DHT22;44782;0.000;0.000;2022-10-26T15:39:49;19.70;70.50
58993;DHT22;44782;0.000;0.000;2022-10-26T15:42:10;19.70;71.20
58993;DHT22;44782;0.000;0.000;2022-10-26T15:44:27;19.70;70.50
58993;DHT22;44782;0.000;0.000;2022-10-26T15:46:43;19.70;70.50
58993;DHT22;44782;0.000;0.000;2022-10-26T15:49:03;19.70;71.20
58993;DHT22;44782;0.000;0.000;2022-10-26T15:51:19;19.70;70.50
58993;DHT22;44782;0.000;0.000;2022-10-26T15:53:34;19.70;70.50
58993;DHT22;44782;0.000;0.000;2022-10-26T15:55:51;19.70;70.50
58993;DHT22;44782;0.000;0.000;2022-10-26T15:58:09;19.70;70.40
58993;DHT22;44782;0.000;0.000;2022-10-26T16:00:25;19.70;70.30
58993;DHT22;44782;0.000;0.000;2022-10-26T16:02:42;19.70;70.40
58993;DHT22;44782;0.000;0.000;2022-10-26T16:04:58;19.70;70.40
58993;DHT22;44782;0.000;0.000;2022-10-26T16:07:14;19.80;70.50
58993;DHT22;44782;0.000;0.000;2022-10-26T16:09:30;19.70;70.40
58993;DHT22;44782;0.000;0.000;2022-10-26T16:11:46;19.70;70.40
58993;DHT22;44782;0.000;0.000;2022-10-26T16:14:01;19.70;70.40
58993;DHT22;44782;0.000;0.000;2022-10-26T16:16:18;19.70;70.40
58993;DHT22;44782;0.000;0.000;2022-10-26T16:18:34;19.70;70.30
58993;DHT22;44782;0.000;0.000;2022-10-26T16:20:49;19.70;70.30
58993;DHT22;44782;0.000;0.000;2022-10-26T16:23:05;19.70;70.30
58993;DHT22;44782;0.000;0.000;2022-10-26T16:25:23;19.70;70.30
58993;DHT22;44782;0.000;0.000;2022-10-26T16:27:39;19.70;70.20
58993;DHT22;44782;0.000;0.000;2022-10-26T16:29:55;19.70;70.20
58993;DHT22;44782;0.000;0.000;2022-10-26T16:32:10;19.70;70.20
58993;DHT22;44782;0.000;0.000;2022-10-26T16:34:26;19.70;70.20
58993;DHT22;44782;0.000;0.000;2022-10-26T16:36:41;19.70;70.20
58993;DHT22;44782;0.000;0.000;2022-10-26T16:38:57;19.70;70.20
58993;DHT22;44782;0.000;0.000;2022-10-26T16:41:14;19.70;70.10
58993;DHT22;44782;0.000;0.000;2022-10-26T16:43:33;19.70;70.30
58993;DHT22;44782;0.000;0.000;2022-10-26T16:45:49;19.70;70.10
58993;DHT22;44782;0.000;0.000;2022-10-26T16:48:05;19.70;70.20
58993;DHT22;44782;0.000;0.000;2022-10-26T16:50:28;19.70;70.50
58993;DHT22;44782;0.000;0.000;2022-10-26T16:52:43;19.70;70.50
58993;DHT22;44782;0.000;0.000;2022-10-26T16:55:00;19.70;70.60
58993;DHT22;44782;0.000;0.000;2022-10-26T16:57:15;19.70;70.60
58993;DHT22;44782;0.000;0.000;2022-10-26T16:59:31;19.70;70.60
58993;DHT22;44782;0.000;0.000;2022-10-26T17:01:47;19.70;71.40
58993;DHT22;44782;0.000;0.000;2022-10-26T17:04:02;19.70;70.80
58993;DHT22;44782;0.000;0.000;2022-10-26T17:06:18;19.70;70.70